Time;durP1;ratioP1;P1;durP2;ratioP2;P2;SDS_P1;SDS_P2;PMS_P1;PMS_P2;Temp;Humidity;BMP_temperature;BMP_pressure;BME280_temperature;BME280_humidity;BME280_pressure;Samples;Min_cycle;Max_cycle;Signal;HPM_P1;HPM_P2
2021/09/14 00:01:59;;;;;;;1.80;1.70;;;14.20;87.60;;;;;;4945431;28;20066;-68
2021/09/14 00:04:25;;;;;;;2.50;2.30;;;14.20;87.60;;;;;;4944090;28;20100;-68
2021/09/14 00:06:50;;;;;;;2.40;2.20;;;14.20;87.70;;;;;;4949018;28;20835;-67
2021/09/14 00:09:16;;;;;;;3.30;3.00;;;14.20;87.70;;;;;;4939385;28;20047;-68
2021/09/14 00:11:42;;;;;;;3.95;3.20;;;14.20;88.40;;;;;;4963138;28;20030;-67
2021/09/14 00:14:08;;;;;;;4.40;3.20;;;14.20;88.30;;;;;;4947915;28;20031;-67
2021/09/14 00:16:33;;;;;;;6.57;3.20;;;14.20;88.40;;;;;;4945376;28;20603;-68
2021/09/14 00:18:59;;;;;;;4.93;3.60;;;14.20;89.00;;;;;;4947748;28;20028;-67
2021/09/14 00:21:25;;;;;;;4.20;3.20;;;14.20;89.80;;;;;;4943566;28;20043;-67
2021/09/14 00:23:50;;;;;;;3.65;2.95;;;14.20;89.80;;;;;;4941620;28;20039;-68
2021/09/14 00:26:16;;;;;;;3.65;3.08;;;14.10;89.70;;;;;;4946027;28;20035;-68
2021/09/14 00:28:42;;;;;;;5.72;3.15;;;14.10;89.60;;;;;;4942977;28;20035;-67
2021/09/14 00:31:07;;;;;;;3.67;3.22;;;14.10;88.90;;;;;;4943191;28;20067;-67
2021/09/14 00:33:33;;;;;;;3.60;2.47;;;14.20;89.30;;;;;;4945419;28;20055;-67
2021/09/14 00:35:59;;;;;;;4.13;3.00;;;14.20;88.60;;;;;;4952941;28;20031;-68
2021/09/14 00:38:24;;;;;;;6.68;3.40;;;14.10;89.30;;;;;;4944242;28;20027;-68
2021/09/14 00:40:50;;;;;;;6.72;3.60;;;14.10;89.70;;;;;;4945303;28;20050;-67
2021/09/14 00:43:23;;;;;;;4.90;3.10;;;14.00;88.60;;;;;;4943387;28;20026;-67
2021/09/14 00:45:51;;;;;;;3.83;2.33;;;13.90;88.40;;;;;;4940057;28;20105;-67
2021/09/14 00:48:17;;;;;;;3.63;2.78;;;13.80;88.90;;;;;;4940457;28;20034;-67
2021/09/14 00:50:43;;;;;;;6.05;3.10;;;13.90;90.10;;;;;;4947253;28;20039;-68
2021/09/14 00:53:09;;;;;;;3.70;2.90;;;13.90;90.20;;;;;;4947409;28;20059;-68
2021/09/14 00:55:35;;;;;;;2.58;2.35;;;13.90;90.20;;;;;;4966803;28;20034;-68
2021/09/14 00:58:01;;;;;;;3.28;2.78;;;13.90;90.00;;;;;;4943538;28;20042;-68
2021/09/14 01:00:26;;;;;;;2.35;2.00;;;13.90;89.20;;;;;;4951223;28;20427;-68
2021/09/14 01:02:52;;;;;;;2.08;1.88;;;13.90;88.60;;;;;;4947338;28;20469;-68
2021/09/14 01:05:18;;;;;;;4.13;2.00;;;13.80;88.20;;;;;;4952525;28;20061;-68
2021/09/14 01:07:46;;;;;;;2.30;2.10;;;13.80;88.20;;;;;;4952739;28;20118;-67
2021/09/14 01:10:13;;;;;;;2.15;2.05;;;13.80;89.00;;;;;;4946163;28;20071;-67
2021/09/14 01:12:39;;;;;;;4.05;2.22;;;13.80;88.80;;;;;;4949169;28;20090;-67
2021/09/14 01:15:07;;;;;;;1.92;1.83;;;13.80;88.90;;;;;;4948258;28;20027;-67
2021/09/14 01:17:33;;;;;;;2.17;1.98;;;13.70;88.40;;;;;;4945079;28;20114;-68
2021/09/14 01:19:58;;;;;;;1.70;1.60;;;13.60;89.40;;;;;;4949856;28;20032;-68
2021/09/14 01:22:31;;;;;;;2.05;1.95;;;13.60;89.60;;;;;;4954845;28;20419;-67
2021/09/14 01:24:58;;;;;;;3.83;2.63;;;13.60;90.00;;;;;;4948105;28;20070;-67
2021/09/14 01:27:23;;;;;;;5.18;3.40;;;13.60;90.10;;;;;;4969162;28;20039;-68
2021/09/14 01:32:33;;;;;;;5.03;4.15;;;13.50;91.30;;;;;;4946337;28;20066;-67
2021/09/14 01:35:06;;;;;;;4.80;3.80;;;13.50;91.50;;;;;;4950820;28;20027;-67
2021/09/14 01:37:32;;;;;;;5.95;2.75;;;13.30;92.10;;;;;;4952061;28;20400;-69
2021/09/14 01:39:57;;;;;;;1.98;1.88;;;13.30;90.30;;;;;;4943993;28;20031;-68
2021/09/14 01:42:23;;;;;;;1.85;1.75;;;13.20;89.50;;;;;;4949763;28;20210;-68
2021/09/14 01:44:48;;;;;;;3.35;2.17;;;13.20;89.60;;;;;;4952301;28;20039;-68
2021/09/14 01:47:14;;;;;;;2.30;2.10;;;13.10;89.30;;;;;;4943137;28;20081;-68
2021/09/14 01:49:39;;;;;;;1.77;1.67;;;13.20;89.20;;;;;;4945777;28;20040;-68
2021/09/14 01:52:05;;;;;;;2.08;1.95;;;13.10;88.30;;;;;;4946966;28;20504;-68
2021/09/14 01:54:31;;;;;;;2.30;2.10;;;13.10;87.60;;;;;;4950451;28;20033;-68
2021/09/14 01:56:57;;;;;;;2.60;2.38;;;13.00;87.50;;;;;;4947574;28;20054;-68
2021/09/14 01:59:23;;;;;;;2.42;2.22;;;13.00;88.80;;;;;;4944363;28;20038;-68
2021/09/14 02:01:56;;;;;;;2.92;2.53;;;13.00;89.40;;;;;;4945290;28;20038;-67
2021/09/14 02:05:07;;;;;;;3.53;2.67;;;13.10;90.00;;;;;;4950071;28;20023;-68
2021/09/14 02:39:43;;;;;;;3.28;2.80;;;13.20;91.10;;;;;;4947619;28;20567;-68
2021/09/14 02:56:06;;;;;;;2.80;2.50;;;13.10;90.50;;;;;;4949425;28;20163;-68
2021/09/14 02:56:20;;;;;;;3.30;3.00;;;13.00;90.50;;;;;;4945812;28;20055;-68
2021/09/14 02:58:45;;;;;;;5.38;3.35;;;13.10;90.60;;;;;;4948212;28;20038;-67
2021/09/14 03:01:13;;;;;;;3.78;3.38;;;13.00;91.30;;;;;;4946691;28;20031;-67
2021/09/14 03:03:42;;;;;;;3.78;3.47;;;12.90;92.20;;;;;;4941595;28;20039;-67
2021/09/14 03:06:12;;;;;;;3.95;3.58;;;12.90;92.60;;;;;;4960960;28;20031;-68
2021/09/14 03:08:39;;;;;;;4.95;3.80;;;13.00;92.50;;;;;;4945081;28;20561;-68
2021/09/14 03:11:10;;;;;;;4.07;3.55;;;13.00;92.40;;;;;;4951370;28;20469;-68
2021/09/14 03:13:37;;;;;;;6.20;3.70;;;13.10;92.60;;;;;;4945357;28;20019;-68
2021/09/14 03:16:04;;;;;;;4.68;3.97;;;13.00;93.10;;;;;;4962135;28;20050;-68
2021/09/14 03:18:30;;;;;;;4.22;3.53;;;13.10;93.20;;;;;;4945755;28;20035;-68
2021/09/14 03:20:56;;;;;;;5.07;4.03;;;13.10;92.80;;;;;;4956642;28;20777;-68
2021/09/14 03:23:21;;;;;;;4.38;3.97;;;13.10;93.10;;;;;;4945411;28;20114;-68
2021/09/14 03:25:47;;;;;;;3.33;3.03;;;13.20;92.50;;;;;;4951281;28;20033;-68
2021/09/14 03:28:13;;;;;;;3.35;2.85;;;13.20;91.70;;;;;;4941216;28;20086;-67
2021/09/14 03:30:38;;;;;;;3.75;2.85;;;13.10;91.00;;;;;;4945442;28;20436;-69
2021/09/14 03:33:04;;;;;;;3.40;3.10;;;13.10;91.40;;;;;;4947102;28;20023;-67
2021/09/14 03:35:30;;;;;;;3.20;2.80;;;13.00;91.40;;;;;;4966604;28;20121;-67
2021/09/14 03:37:56;;;;;;;3.03;2.72;;;13.00;91.10;;;;;;4947894;28;20031;-67
2021/09/14 03:40:22;;;;;;;2.83;2.63;;;13.00;90.70;;;;;;4945425;28;20027;-67
2021/09/14 03:42:48;;;;;;;3.10;2.85;;;12.90;90.70;;;;;;4948159;28;20040;-68
2021/09/14 03:45:14;;;;;;;2.95;2.30;;;12.90;90.90;;;;;;4940456;28;20031;-67
2021/09/14 03:47:39;;;;;;;2.58;2.38;;;12.90;90.30;;;;;;4942099;28;20023;-67
2021/09/14 03:50:06;;;;;;;1.88;1.77;;;12.80;90.20;;;;;;4951346;28;20050;-68
2021/09/14 03:52:32;;;;;;;3.30;3.03;;;12.80;90.40;;;;;;4943914;28;20046;-68
2021/09/14 03:54:58;;;;;;;4.05;3.50;;;12.70;90.80;;;;;;4947787;28;20098;-68
2021/09/14 03:57:23;;;;;;;5.90;2.90;;;12.90;91.40;;;;;;4943827;28;20144;-68
2021/09/14 03:59:49;;;;;;;5.72;3.33;;;12.80;91.10;;;;;;4941563;28;20113;-68
2021/09/14 04:07:51;;;;;;;5.05;2.97;;;12.90;90.50;;;;;;4944838;28;21349;-68
2021/09/14 04:10:08;;;;;;;4.35;3.10;;;12.90;90.70;;;;;;4948505;28;20066;-67
2021/09/14 04:12:34;;;;;;;3.97;3.22;;;12.90;91.00;;;;;;4940043;28;20038;-67
2021/09/14 04:15:01;;;;;;;5.03;3.80;;;12.90;91.10;;;;;;4944677;28;20027;-68
2021/09/14 04:17:27;;;;;;;5.22;3.75;;;13.00;90.90;;;;;;4940916;28;20085;-68
2021/09/14 04:19:53;;;;;;;7.22;4.28;;;12.90;90.80;;;;;;4945169;29;20533;-68
2021/09/14 04:22:18;;;;;;;6.55;4.30;;;12.90;90.90;;;;;;4944630;28;20404;-68
2021/09/14 04:24:44;;;;;;;3.58;3.28;;;12.90;91.30;;;;;;4944866;29;20043;-68
2021/09/14 04:27:10;;;;;;;9.85;2.45;;;12.70;89.60;;;;;;4942778;28;20020;-67
2021/09/14 04:29:36;;;;;;;2.38;2.17;;;12.60;89.70;;;;;;4938780;28;20094;-67
2021/09/14 04:32:02;;;;;;;1.63;1.52;;;12.60;89.90;;;;;;4939663;28;20047;-68
2021/09/14 04:34:27;;;;;;;2.45;2.25;;;12.50;90.00;;;;;;4959837;28;20095;-68
2021/09/14 04:36:53;;;;;;;2.40;2.20;;;12.50;90.00;;;;;;4945545;28;20019;-68
2021/09/14 04:39:19;;;;;;;1.77;1.67;;;12.50;90.70;;;;;;4941826;28;20039;-67
2021/09/14 04:41:46;;;;;;;2.05;1.95;;;12.40;90.50;;;;;;4942589;28;20023;-68
2021/09/14 04:44:11;;;;;;;6.93;2.40;;;12.50;90.40;;;;;;4942495;28;20027;-68
2021/09/14 04:46:37;;;;;;;2.67;2.45;;;12.50;90.40;;;;;;4947416;28;20094;-67
2021/09/14 04:49:04;;;;;;;2.67;2.30;;;12.50;90.30;;;;;;4946279;28;20073;-67
2021/09/14 04:51:30;;;;;;;2.45;2.25;;;12.50;90.40;;;;;;4940492;28;20027;-67
2021/09/14 04:53:56;;;;;;;2.78;2.58;;;12.40;90.30;;;;;;4944206;28;20110;-68
2021/09/14 04:56:21;;;;;;;1.95;1.77;;;12.40;90.40;;;;;;4949130;28;20122;-68
2021/09/14 04:58:49;;;;;;;1.90;1.80;;;12.50;90.60;;;;;;4942932;28;20121;-68
2021/09/14 05:01:19;;;;;;;1.30;1.30;;;12.40;90.60;;;;;;4946421;28;20041;-68
2021/09/14 05:03:45;;;;;;;6.93;2.20;;;12.40;90.70;;;;;;4946166;28;20184;-68
2021/09/14 05:06:11;;;;;;;21.35;3.05;;;12.40;90.80;;;;;;4944332;28;20057;-68
2021/09/14 05:08:36;;;;;;;2.10;2.00;;;12.40;91.10;;;;;;4943243;28;20564;-68
2021/09/14 05:11:03;;;;;;;2.13;1.92;;;12.40;91.00;;;;;;4948402;28;20027;-68
2021/09/14 05:13:29;;;;;;;2.58;2.38;;;12.40;91.00;;;;;;4950203;28;20056;-68
2021/09/14 05:15:54;;;;;;;3.05;2.53;;;12.40;91.00;;;;;;4941814;28;20031;-68
2021/09/14 05:18:20;;;;;;;3.15;2.30;;;12.40;91.00;;;;;;4942063;28;20107;-68
2021/09/14 05:20:47;;;;;;;3.05;2.40;;;12.50;91.00;;;;;;4943827;28;20050;-68
2021/09/14 05:23:19;;;;;;;3.17;2.47;;;12.50;91.30;;;;;;4940611;28;20033;-66
2021/09/14 05:25:45;;;;;;;3.08;2.58;;;12.50;91.30;;;;;;4957709;28;20535;-65
2021/09/14 05:28:13;;;;;;;4.13;3.00;;;12.60;91.20;;;;;;4945066;28;20035;-67
2021/09/14 05:30:43;;;;;;;3.22;2.70;;;12.50;91.40;;;;;;4951508;28;20650;-68
2021/09/14 05:33:09;;;;;;;7.40;3.60;;;12.60;91.50;;;;;;4951434;28;20023;-68
2021/09/14 05:35:45;;;;;;;4.88;4.10;;;12.50;92.20;;;;;;4946664;28;20655;-68
2021/09/14 05:38:12;;;;;;;4.60;4.10;;;12.50;93.20;;;;;;4948387;28;20067;-67
2021/09/14 05:40:38;;;;;;;3.90;3.55;;;12.60;92.80;;;;;;4951287;28;20041;-67
2021/09/14 05:43:04;;;;;;;6.32;2.90;;;12.60;93.00;;;;;;4952223;28;20035;-69
2021/09/14 05:45:31;;;;;;;4.32;3.10;;;12.50;92.30;;;;;;4946808;28;20046;-68
2021/09/14 05:47:57;;;;;;;3.58;3.15;;;12.40;92.60;;;;;;4945843;28;20030;-69
2021/09/14 05:50:23;;;;;;;4.47;3.05;;;12.30;93.30;;;;;;4970418;28;20086;-68
2021/09/14 05:52:49;;;;;;;9.40;4.35;;;12.40;93.00;;;;;;4955411;28;20031;-70
2021/09/14 05:55:14;;;;;;;5.40;4.28;;;12.50;93.30;;;;;;4941330;28;20115;-69
2021/09/14 05:57:40;;;;;;;4.72;4.28;;;12.60;93.80;;;;;;4953766;28;20423;-68
2021/09/14 06:00:07;;;;;;;5.95;4.18;;;12.60;93.90;;;;;;4952711;28;20055;-70
2021/09/14 06:02:32;;;;;;;7.57;3.95;;;12.70;94.20;;;;;;4955638;28;20504;-68
2021/09/14 06:04:58;;;;;;;4.95;4.30;;;12.70;94.00;;;;;;4951094;28;20122;-69
2021/09/14 06:07:23;;;;;;;8.07;4.82;;;12.80;94.00;;;;;;4946956;28;20122;-69
2021/09/14 06:09:49;;;;;;;6.90;4.25;;;12.90;94.40;;;;;;4943771;28;20024;-68
2021/09/14 06:12:15;;;;;;;7.57;4.45;;;13.00;93.90;;;;;;4947839;28;20035;-68
2021/09/14 06:14:40;;;;;;;7.38;4.72;;;13.00;93.40;;;;;;4961208;28;20039;-68
2021/09/14 06:17:06;;;;;;;5.90;4.25;;;13.10;94.10;;;;;;4944053;28;20042;-70
2021/09/14 06:19:31;;;;;;;5.07;4.55;;;13.20;93.20;;;;;;4947075;28;20118;-69
2021/09/14 06:21:57;;;;;;;7.00;5.10;;;13.30;93.10;;;;;;4958859;28;20156;-68
2021/09/14 06:24:23;;;;;;;7.75;4.55;;;13.40;93.20;;;;;;4942356;28;20043;-69
2021/09/14 06:26:48;;;;;;;7.53;4.95;;;13.40;93.00;;;;;;4942742;28;20035;-68
2021/09/14 06:29:14;;;;;;;5.65;4.32;;;13.50;93.00;;;;;;4940721;28;20046;-69
2021/09/14 06:31:40;;;;;;;5.53;4.57;;;13.60;93.40;;;;;;4943838;28;20599;-69
2021/09/14 06:34:06;;;;;;;5.68;4.72;;;13.60;94.00;;;;;;4945362;28;20123;-69
2021/09/14 06:36:31;;;;;;;7.75;4.95;;;13.70;94.00;;;;;;4942855;28;20066;-69
2021/09/14 06:38:57;;;;;;;5.88;4.40;;;13.70;94.40;;;;;;4945056;28;20469;-68
2021/09/14 06:41:22;;;;;;;5.00;4.35;;;13.80;94.00;;;;;;4946264;28;20035;-69
2021/09/14 06:43:48;;;;;;;5.35;4.57;;;13.90;94.10;;;;;;4960908;28;20063;-69
2021/09/14 06:46:14;;;;;;;6.45;4.85;;;13.90;93.90;;;;;;4943475;28;20026;-71
2021/09/14 06:48:40;;;;;;;5.35;4.57;;;14.00;93.50;;;;;;4945091;28;21730;-69
2021/09/14 06:51:05;;;;;;;6.38;4.75;;;14.00;93.50;;;;;;4946493;28;20028;-69
2021/09/14 06:53:31;;;;;;;7.20;4.70;;;14.10;93.60;;;;;;4943111;28;20039;-69
2021/09/14 06:55:57;;;;;;;5.90;4.90;;;14.20;93.70;;;;;;4944298;28;20023;-68
2021/09/14 06:58:23;;;;;;;5.72;4.75;;;14.20;93.10;;;;;;4942741;28;20078;-68
2021/09/14 07:00:49;;;;;;;7.25;4.57;;;14.30;93.60;;;;;;4940134;28;21613;-68
2021/09/14 07:03:15;;;;;;;6.40;4.80;;;14.40;93.70;;;;;;4943326;28;20027;-68
2021/09/14 07:05:40;;;;;;;7.13;5.32;;;14.50;93.50;;;;;;4942377;28;20034;-68
2021/09/14 07:08:06;;;;;;;6.47;4.85;;;14.60;93.90;;;;;;4944566;28;20122;-68
2021/09/14 07:10:32;;;;;;;7.85;5.10;;;14.70;94.30;;;;;;4942253;29;20046;-69
2021/09/14 07:12:58;;;;;;;7.60;5.10;;;14.70;94.00;;;;;;4944282;28;20944;-69
2021/09/14 07:15:23;;;;;;;5.82;4.60;;;14.80;93.90;;;;;;4942483;28;20043;-69
2021/09/14 07:17:49;;;;;;;6.57;5.18;;;14.90;93.50;;;;;;4942398;28;20046;-69
2021/09/14 07:20:15;;;;;;;6.72;5.38;;;14.90;93.70;;;;;;4941713;28;20027;-69
2021/09/14 07:22:41;;;;;;;7.10;5.20;;;15.00;93.70;;;;;;4956252;28;20101;-68
2021/09/14 07:25:07;;;;;;;6.38;4.70;;;15.10;93.60;;;;;;4944485;28;20036;-68
2021/09/14 07:27:33;;;;;;;6.25;5.10;;;15.20;93.50;;;;;;4943022;28;20130;-68
2021/09/14 07:29:59;;;;;;;7.53;4.68;;;15.30;94.00;;;;;;4941827;28;20583;-68
2021/09/14 07:32:25;;;;;;;6.65;5.22;;;15.40;94.20;;;;;;4945916;28;20126;-68
2021/09/14 07:34:51;;;;;;;8.07;5.28;;;15.50;94.10;;;;;;4946018;28;20118;-68
2021/09/14 07:37:17;;;;;;;7.43;5.43;;;15.70;93.70;;;;;;4954465;28;20110;-69
2021/09/14 07:39:42;;;;;;;5.78;4.88;;;15.80;93.50;;;;;;4952533;28;20035;-68
2021/09/14 07:42:08;;;;;;;5.95;4.90;;;15.90;93.10;;;;;;4952495;28;20341;-68
2021/09/14 07:44:34;;;;;;;7.40;5.00;;;16.10;93.60;;;;;;4949190;29;20118;-68
2021/09/14 07:47:00;;;;;;;8.68;4.88;;;16.20;93.40;;;;;;4940302;28;20039;-67
2021/09/14 07:49:26;;;;;;;10.68;4.72;;;16.30;93.20;;;;;;4939399;28;20404;-68
2021/09/14 07:51:51;;;;;;;6.28;5.03;;;16.40;93.00;;;;;;4937600;28;20236;-67
2021/09/14 07:54:17;;;;;;;8.07;5.15;;;16.50;93.10;;;;;;4935888;28;20031;-67
2021/09/14 07:56:42;;;;;;;6.55;4.70;;;16.70;93.30;;;;;;4941656;28;20070;-68
2021/09/14 07:59:09;;;;;;;8.70;5.20;;;16.90;93.30;;;;;;4947431;28;20068;-67
2021/09/14 08:01:35;;;;;;;7.55;4.72;;;17.00;92.50;;;;;;4949169;28;20035;-67
2021/09/14 08:04:01;;;;;;;8.50;4.97;;;17.20;92.70;;;;;;4944051;28;20040;-68
2021/09/14 08:06:26;;;;;;;5.93;4.80;;;17.30;92.10;;;;;;4958782;28;20464;-67
2021/09/14 08:08:52;;;;;;;6.07;4.72;;;17.40;91.80;;;;;;4949656;28;20039;-67
2021/09/14 08:11:18;;;;;;;5.25;4.65;;;17.60;91.70;;;;;;4946728;28;20530;-68
2021/09/14 08:13:48;;;;;;;5.82;4.80;;;17.80;91.40;;;;;;4941609;28;20093;-69
2021/09/14 08:16:13;;;;;;;11.18;5.30;;;17.90;90.80;;;;;;4939594;28;20031;-69
2021/09/14 08:18:39;;;;;;;7.45;4.53;;;18.00;90.80;;;;;;4942828;28;20420;-67
2021/09/14 08:21:05;;;;;;;5.50;4.90;;;18.20;90.60;;;;;;4939909;28;20031;-68
2021/09/14 08:23:32;;;;;;;7.85;4.70;;;18.20;90.50;;;;;;4961721;28;20753;-69
2021/09/14 08:25:58;;;;;;;7.43;5.05;;;18.40;90.30;;;;;;4945266;28;20369;-68
2021/09/14 08:28:23;;;;;;;6.45;4.75;;;18.50;90.00;;;;;;4939148;28;20042;-68
2021/09/14 08:30:49;;;;;;;7.43;5.05;;;18.70;89.60;;;;;;4943042;28;20148;-68
2021/09/14 08:33:15;;;;;;;5.32;4.22;;;18.80;88.20;;;;;;4944897;28;20027;-68
2021/09/14 08:35:40;;;;;;;5.25;4.40;;;18.90;88.10;;;;;;4937887;28;20038;-69
2021/09/14 08:38:06;;;;;;;8.13;4.68;;;19.00;87.30;;;;;;4939577;28;20029;-68
2021/09/14 08:40:31;;;;;;;6.53;4.10;;;19.20;86.80;;;;;;4936935;28;20587;-68
2021/09/14 08:42:58;;;;;;;6.90;4.78;;;19.20;86.10;;;;;;4954125;28;20061;-68
2021/09/14 08:45:24;;;;;;;8.90;4.97;;;19.30;85.40;;;;;;4942883;28;20587;-68
2021/09/14 08:47:50;;;;;;;7.45;4.82;;;19.30;85.00;;;;;;4941987;28;20035;-68
2021/09/14 08:50:16;;;;;;;6.78;4.60;;;19.50;86.30;;;;;;4943008;28;20038;-68
2021/09/14 08:52:41;;;;;;;4.43;4.00;;;19.60;85.20;;;;;;4938705;28;20027;-68
2021/09/14 08:55:07;;;;;;;5.90;4.63;;;19.60;82.40;;;;;;4941418;28;20905;-67
2021/09/14 08:57:33;;;;;;;5.60;4.00;;;19.70;83.60;;;;;;4942966;28;20428;-68
2021/09/14 08:59:59;;;;;;;4.97;3.85;;;19.80;83.40;;;;;;4946849;28;20035;-68
2021/09/14 09:02:25;;;;;;;5.45;4.63;;;19.80;83.40;;;;;;4941860;28;20055;-68
2021/09/14 09:05:02;;;;;;;5.65;4.13;;;20.00;83.50;;;;;;4936480;28;20042;-68
2021/09/14 09:07:35;;;;;;;4.65;4.03;;;20.10;81.60;;;;;;4937824;28;20189;-68
2021/09/14 09:10:14;;;;;;;4.72;4.22;;;20.20;81.40;;;;;;4940766;28;20125;-68
2021/09/14 09:12:47;;;;;;;7.10;4.03;;;20.40;82.20;;;;;;4940650;28;20180;-68
2021/09/14 09:15:24;;;;;;;6.28;4.30;;;20.50;80.30;;;;;;4941039;28;20031;-69
2021/09/14 09:18:12;;;;;;;8.77;4.65;;;20.70;80.00;;;;;;4948075;28;20114;-69
2021/09/14 09:20:40;;;;;;;5.88;3.40;;;20.80;80.80;;;;;;4950907;28;20735;-68
2021/09/14 09:23:12;;;;;;;4.32;3.80;;;20.90;78.30;;;;;;4950678;28;20035;-69
2021/09/14 09:25:38;;;;;;;4.28;3.80;;;21.10;77.40;;;;;;4965193;28;20027;-68
2021/09/14 09:28:08;;;;;;;5.00;3.80;;;21.10;78.20;;;;;;4956418;28;20039;-69
2021/09/14 09:30:36;;;;;;;8.70;3.70;;;21.30;77.10;;;;;;4945405;28;20063;-69
2021/09/14 09:33:08;;;;;;;5.10;3.58;;;21.30;77.30;;;;;;4954436;28;20039;-69
2021/09/14 09:35:40;;;;;;;4.72;3.67;;;21.40;78.10;;;;;;4948758;28;20038;-68
2021/09/14 09:38:07;;;;;;;4.85;3.58;;;21.50;76.10;;;;;;4952338;28;20058;-68
2021/09/14 09:40:37;;;;;;;5.97;4.00;;;21.60;77.00;;;;;;4945713;28;20102;-69
2021/09/14 09:43:09;;;;;;;5.45;3.90;;;21.80;75.70;;;;;;4949630;28;20037;-68
2021/09/14 09:45:41;;;;;;;4.80;3.75;;;21.90;76.10;;;;;;4944390;28;21084;-68
2021/09/14 09:48:07;;;;;;;5.93;3.70;;;22.00;76.00;;;;;;4950901;28;20027;-69
2021/09/14 09:50:33;;;;;;;4.50;3.30;;;22.10;75.60;;;;;;4952496;28;20074;-68
2021/09/14 09:53:02;;;;;;;5.32;3.90;;;22.00;73.20;;;;;;4950478;28;20093;-68
2021/09/14 09:55:28;;;;;;;7.80;3.65;;;22.00;74.30;;;;;;4939294;28;20042;-68
2021/09/14 09:57:55;;;;;;;5.95;3.60;;;22.10;74.40;;;;;;4952577;28;20042;-68
2021/09/14 10:00:20;;;;;;;3.78;3.33;;;22.30;74.00;;;;;;4949702;29;20035;-68
2021/09/14 10:02:56;;;;;;;4.10;3.15;;;22.30;75.30;;;;;;4951183;28;20040;-68
2021/09/14 10:05:29;;;;;;;4.30;3.60;;;22.40;71.30;;;;;;4949835;28;20057;-69
2021/09/14 10:08:00;;;;;;;3.45;3.10;;;22.40;72.30;;;;;;4951694;28;20042;-68
2021/09/14 10:10:36;;;;;;;5.65;3.47;;;22.60;73.90;;;;;;4947124;28;20519;-68
2021/09/14 10:13:07;;;;;;;4.82;3.10;;;22.60;73.20;;;;;;4950304;28;20034;-68
2021/09/14 10:15:43;;;;;;;3.63;3.15;;;22.70;71.90;;;;;;4951927;28;20035;-68
2021/09/14 10:18:11;;;;;;;6.03;3.50;;;22.80;72.00;;;;;;4949239;28;20035;-68
2021/09/14 10:20:43;;;;;;;3.50;3.20;;;22.90;72.90;;;;;;4949350;28;20507;-68
2021/09/14 10:23:20;;;;;;;5.65;3.60;;;23.00;70.00;;;;;;4966617;28;20141;-68
2021/09/14 10:25:50;;;;;;;3.50;3.10;;;23.00;69.90;;;;;;4949737;28;20033;-68
2021/09/14 10:28:19;;;;;;;3.80;2.88;;;23.00;69.70;;;;;;4951891;28;20121;-68
2021/09/14 10:30:47;;;;;;;4.35;3.20;;;23.00;67.60;;;;;;4952494;28;20042;-70
2021/09/14 10:33:24;;;;;;;3.72;3.42;;;23.10;68.60;;;;;;4951646;28;20036;-68
2021/09/14 10:35:50;;;;;;;6.50;3.15;;;23.30;69.50;;;;;;4950093;28;20587;-68
2021/09/14 10:38:17;;;;;;;2.90;2.63;;;23.30;67.90;;;;;;4951894;28;20063;-68
2021/09/14 10:40:47;;;;;;;3.60;3.00;;;23.30;67.30;;;;;;4947522;28;20043;-68
2021/09/14 10:43:21;;;;;;;6.07;3.38;;;23.30;67.60;;;;;;4951526;28;20777;-68
2021/09/14 10:45:47;;;;;;;4.82;3.13;;;23.40;67.30;;;;;;4951601;28;20023;-68
2021/09/14 10:48:21;;;;;;;6.88;5.30;;;23.50;66.90;;;;;;4950581;28;20061;-68
2021/09/14 10:50:47;;;;;;;3.67;3.08;;;23.60;66.90;;;;;;4948368;28;20085;-69
2021/09/14 10:53:26;;;;;;;3.70;2.63;;;23.40;61.40;;;;;;4948601;28;20508;-68
2021/09/14 10:55:58;;;;;;;3.42;2.88;;;23.30;64.50;;;;;;4942362;28;20031;-68
2021/09/14 10:58:26;;;;;;;5.05;3.25;;;23.20;66.00;;;;;;4950434;28;20483;-68
2021/09/14 11:00:52;;;;;;;4.53;3.42;;;23.30;63.40;;;;;;4949803;28;20093;-68
2021/09/14 11:03:18;;;;;;;3.75;3.20;;;23.10;63.40;;;;;;4947253;28;20505;-69
2021/09/14 11:05:52;;;;;;;4.70;2.97;;;23.20;67.30;;;;;;4952873;28;20031;-68
2021/09/14 11:08:23;;;;;;;4.50;3.30;;;23.30;66.10;;;;;;4951462;29;20385;-68
2021/09/14 11:10:49;;;;;;;3.25;2.95;;;23.30;65.40;;;;;;4950002;29;20676;-69
2021/09/14 11:13:23;;;;;;;3.75;3.00;;;23.40;65.90;;;;;;4950102;28;20023;-68
2021/09/14 11:16:05;;;;;;;4.35;3.40;;;23.50;64.20;;;;;;4951371;28;20078;-69
2021/09/14 11:18:32;;;;;;;4.65;3.35;;;23.60;64.70;;;;;;4949556;28;20071;-68
2021/09/14 11:21:27;;;;;;;;;;;23.60;65.00;;;;;;4950874;28;20027;-68
2021/09/14 11:23:53;;;;;;;3.45;3.15;;;23.70;64.80;;;;;;4946248;28;19922;-68
2021/09/14 11:26:20;;;;;;;3.38;3.08;;;23.70;64.20;;;;;;4950311;29;20031;-68
2021/09/14 11:29:12;;;;;;;5.80;3.57;;;23.70;64.20;;;;;;4949223;28;20451;-69
2021/09/14 11:31:38;;;;;;;4.45;3.30;;;23.70;63.30;;;;;;4947033;28;20035;-69
2021/09/14 11:34:05;;;;;;;4.22;3.03;;;23.80;65.00;;;;;;4950265;28;20023;-69
2021/09/14 11:36:31;;;;;;;3.80;3.45;;;23.80;64.60;;;;;;4947579;28;20090;-68
2021/09/14 11:38:59;;;;;;;3.30;3.00;;;23.80;65.00;;;;;;4945539;28;20047;-70
2021/09/14 11:41:34;;;;;;;4.75;2.95;;;23.80;65.30;;;;;;4949098;28;20381;-68
2021/09/14 11:44:00;;;;;;;4.93;3.45;;;23.80;62.70;;;;;;4964666;28;20047;-68
2021/09/14 11:46:26;;;;;;;9.80;3.75;;;23.80;62.50;;;;;;4951355;28;20043;-68
2021/09/14 11:49:03;;;;;;;4.25;3.30;;;23.80;60.40;;;;;;4948958;28;20031;-68
2021/09/14 11:51:36;;;;;;;6.30;3.50;;;24.10;61.40;;;;;;4946669;28;20031;-68
2021/09/14 11:54:01;;;;;;;4.97;3.13;;;24.10;61.90;;;;;;4947080;28;20062;-68
2021/09/14 11:56:28;;;;;;;4.47;3.15;;;24.10;61.70;;;;;;4953625;28;20380;-68
2021/09/14 11:58:54;;;;;;;4.22;3.20;;;24.10;61.80;;;;;;4950395;28;20050;-68
2021/09/14 12:01:21;;;;;;;4.60;3.60;;;24.20;61.30;;;;;;4961732;28;20512;-68
2021/09/14 12:03:50;;;;;;;4.15;3.50;;;24.20;63.30;;;;;;4947896;28;20039;-68
2021/09/14 12:06:24;;;;;;;4.28;3.63;;;24.20;62.60;;;;;;4949174;28;20048;-68
2021/09/14 12:08:50;;;;;;;3.40;3.10;;;24.20;62.50;;;;;;4955483;28;20062;-69
2021/09/14 12:11:33;;;;;;;4.20;3.25;;;24.20;62.30;;;;;;4942244;28;20065;-69
2021/09/14 12:14:03;;;;;;;3.58;3.22;;;24.20;63.00;;;;;;4947788;28;20033;-68
2021/09/14 12:16:32;;;;;;;3.55;3.22;;;24.30;62.70;;;;;;4955062;28;20027;-68
2021/09/14 12:18:59;;;;;;;4.43;3.08;;;24.40;63.20;;;;;;4949387;28;20031;-68
2021/09/14 12:21:26;;;;;;;3.47;3.17;;;24.40;61.70;;;;;;4950188;28;20031;-68
2021/09/14 12:23:53;;;;;;;3.58;3.10;;;24.40;61.70;;;;;;4948338;28;20488;-68
2021/09/14 12:26:22;;;;;;;4.70;3.37;;;24.40;60.80;;;;;;4946019;28;20672;-69
2021/09/14 12:28:49;;;;;;;3.60;3.10;;;24.40;61.90;;;;;;4954943;28;20090;-68
2021/09/14 12:31:16;;;;;;;4.10;3.33;;;24.40;61.60;;;;;;4946957;28;20051;-68
2021/09/14 12:33:41;;;;;;;3.20;2.90;;;24.30;60.80;;;;;;4950753;28;20499;-68
2021/09/14 12:36:09;;;;;;;4.68;3.30;;;24.40;61.00;;;;;;4946277;28;20031;-68
2021/09/14 12:38:34;;;;;;;3.80;3.40;;;24.40;61.60;;;;;;4949925;28;20074;-68
2021/09/14 12:41:00;;;;;;;3.08;2.78;;;24.50;61.40;;;;;;4948662;28;20070;-68
2021/09/14 12:43:25;;;;;;;5.35;3.28;;;24.50;60.80;;;;;;4949446;28;20031;-70
2021/09/14 12:45:51;;;;;;;3.55;3.20;;;24.40;58.80;;;;;;4952594;28;20102;-68
2021/09/14 12:48:16;;;;;;;3.08;2.80;;;24.40;60.60;;;;;;4963078;28;20093;-68
2021/09/14 12:50:42;;;;;;;3.72;2.92;;;24.50;59.70;;;;;;4955098;28;20077;-68
2021/09/14 12:53:08;;;;;;;3.08;2.78;;;24.50;60.70;;;;;;4952829;28;20023;-68
2021/09/14 12:55:36;;;;;;;4.97;2.88;;;24.50;60.00;;;;;;4957198;28;20031;-68
2021/09/14 12:58:04;;;;;;;3.33;3.00;;;24.60;60.30;;;;;;4955492;28;20019;-68
2021/09/14 13:00:30;;;;;;;4.20;3.08;;;24.60;61.10;;;;;;4953250;28;20053;-68
2021/09/14 13:02:55;;;;;;;3.67;3.05;;;24.60;60.30;;;;;;4955443;28;20464;-68
2021/09/14 13:05:21;;;;;;;3.50;3.00;;;24.70;59.90;;;;;;4955782;28;20046;-68
2021/09/14 13:07:47;;;;;;;5.35;3.10;;;24.70;59.40;;;;;;4953886;28;20037;-68
2021/09/14 13:10:13;;;;;;;3.17;2.70;;;24.70;59.40;;;;;;4953137;28;20024;-68
2021/09/14 13:12:47;;;;;;;5.18;3.00;;;24.60;59.20;;;;;;4957628;28;20023;-69
2021/09/14 13:17:58;;;;;;;4.85;2.85;;;24.70;56.60;;;;;;4956908;28;20073;-68
2021/09/14 13:20:24;;;;;;;3.20;2.90;;;24.70;56.90;;;;;;4953864;28;20082;-68
2021/09/14 13:22:49;;;;;;;6.63;3.25;;;24.70;59.80;;;;;;4950986;28;20086;-69
2021/09/14 13:25:15;;;;;;;3.47;3.13;;;24.60;58.60;;;;;;4952654;28;20497;-68
2021/09/14 13:27:41;;;;;;;3.00;2.72;;;24.70;59.80;;;;;;4955630;28;20117;-68
2021/09/14 13:30:07;;;;;;;3.33;3.03;;;24.70;59.70;;;;;;4954653;28;20047;-68
2021/09/14 13:32:33;;;;;;;3.40;2.63;;;24.70;59.90;;;;;;4954150;28;20058;-68
2021/09/14 13:34:58;;;;;;;4.78;3.08;;;24.70;58.00;;;;;;4953740;28;20031;-68
2021/09/14 13:37:24;;;;;;;5.55;3.35;;;24.80;59.00;;;;;;4953672;28;20034;-68
2021/09/14 13:39:51;;;;;;;3.05;2.75;;;24.90;59.10;;;;;;4951654;28;20035;-68
2021/09/14 13:42:22;;;;;;;3.05;2.75;;;24.80;58.90;;;;;;4953792;28;20431;-68
2021/09/14 13:47:20;;;;;;;3.40;3.10;;;24.90;58.50;;;;;;4955739;28;20038;-68